sensor_id;sensor_type;location;lat;lon;timestamp;temperature;humidity
20524;DHT22;10420;48.542;12.270;2022-07-25T00:03:27;18.20;99.90
20524;DHT22;10420;48.542;12.270;2022-07-25T00:08:28;18.10;99.90
20524;DHT22;10420;48.542;12.270;2022-07-25T00:13:28;18.00;99.90
20524;DHT22;10420;48.542;12.270;2022-07-25T00:18:29;17.90;99.90
20524;DHT22;10420;48.542;12.270;2022-07-25T00:23:30;17.90;99.90
20524;DHT22;10420;48.542;12.270;2022-07-25T00:28:31;17.80;99.90
20524;DHT22;10420;48.542;12.270;2022-07-25T00:33:32;17.80;99.90
20524;DHT22;10420;48.542;12.270;2022-07-25T00:38:32;17.70;99.90
20524;DHT22;10420;48.542;12.270;2022-07-25T00:43:33;17.80;99.90
20524;DHT22;10420;48.542;12.270;2022-07-25T00:48:34;17.70;99.90
20524;DHT22;10420;48.542;12.270;2022-07-25T00:53:36;17.70;99.90
20524;DHT22;10420;48.542;12.270;2022-07-25T00:58:36;17.70;99.90
20524;DHT22;10420;48.542;12.270;2022-07-25T01:03:37;17.70;99.90
20524;DHT22;10420;48.542;12.270;2022-07-25T01:08:38;17.60;99.90
20524;DHT22;10420;48.542;12.270;2022-07-25T01:13:38;17.60;99.90
20524;DHT22;10420;48.542;12.270;2022-07-25T01:18:39;17.50;99.90
20524;DHT22;10420;48.542;12.270;2022-07-25T01:23:40;17.50;99.90
20524;DHT22;10420;48.542;12.270;2022-07-25T01:28:41;17.50;99.90
20524;DHT22;10420;48.542;12.270;2022-07-25T01:33:41;17.40;99.90
20524;DHT22;10420;48.542;12.270;2022-07-25T01:38:42;17.50;99.90
20524;DHT22;10420;48.542;12.270;2022-07-25T01:43:43;18.10;99.90
20524;DHT22;10420;48.542;12.270;2022-07-25T01:48:44;18.30;99.90
20524;DHT22;10420;48.542;12.270;2022-07-25T01:53:45;18.40;99.90
20524;DHT22;10420;48.542;12.270;2022-07-25T01:58:45;18.70;99.90
20524;DHT22;10420;48.542;12.270;2022-07-25T02:03:46;18.70;99.90
20524;DHT22;10420;48.542;12.270;2022-07-25T02:08:47;18.40;99.90
20524;DHT22;10420;48.542;12.270;2022-07-25T02:13:47;18.30;99.90
20524;DHT22;10420;48.542;12.270;2022-07-25T02:18:48;18.00;99.90
20524;DHT22;10420;48.542;12.270;2022-07-25T02:23:48;17.90;99.90
20524;DHT22;10420;48.542;12.270;2022-07-25T02:28:49;17.80;99.90
20524;DHT22;10420;48.542;12.270;2022-07-25T02:33:50;17.80;99.90
20524;DHT22;10420;48.542;12.270;2022-07-25T02:38:51;17.80;99.90
20524;DHT22;10420;48.542;12.270;2022-07-25T02:43:51;17.80;99.90
20524;DHT22;10420;48.542;12.270;2022-07-25T02:48:52;17.60;99.90
20524;DHT22;10420;48.542;12.270;2022-07-25T02:53:53;17.50;99.90
20524;DHT22;10420;48.542;12.270;2022-07-25T02:58:53;17.40;99.90
20524;DHT22;10420;48.542;12.270;2022-07-25T03:03:54;17.40;99.90
20524;DHT22;10420;48.542;12.270;2022-07-25T03:08:55;17.40;99.90
20524;DHT22;10420;48.542;12.270;2022-07-25T03:13:55;17.60;99.90
20524;DHT22;10420;48.542;12.270;2022-07-25T03:18:57;17.50;99.90
20524;DHT22;10420;48.542;12.270;2022-07-25T03:23:57;17.40;99.90
20524;DHT22;10420;48.542;12.270;2022-07-25T03:28:58;17.70;99.90
20524;DHT22;10420;48.542;12.270;2022-07-25T03:33:58;18.10;99.90
20524;DHT22;10420;48.542;12.270;2022-07-25T03:38:59;18.30;99.90
20524;DHT22;10420;48.542;12.270;2022-07-25T03:44:00;18.20;99.90
20524;DHT22;10420;48.542;12.270;2022-07-25T03:49:00;18.10;99.90
20524;DHT22;10420;48.542;12.270;2022-07-25T03:54:01;17.90;99.90
20524;DHT22;10420;48.542;12.270;2022-07-25T03:59:03;17.80;99.90
20524;DHT22;10420;48.542;12.270;2022-07-25T04:04:04;17.80;99.90
20524;DHT22;10420;48.542;12.270;2022-07-25T04:09:06;17.60;99.90
20524;DHT22;10420;48.542;12.270;2022-07-25T04:14:07;18.00;99.90
20524;DHT22;10420;48.542;12.270;2022-07-25T04:19:08;18.60;99.90
20524;DHT22;10420;48.542;12.270;2022-07-25T04:24:08;18.60;99.90
20524;DHT22;10420;48.542;12.270;2022-07-25T04:29:09;18.90;99.90
20524;DHT22;10420;48.542;12.270;2022-07-25T04:34:10;19.00;99.90
20524;DHT22;10420;48.542;12.270;2022-07-25T04:39:10;19.20;99.90
20524;DHT22;10420;48.542;12.270;2022-07-25T04:44:11;19.50;99.90
20524;DHT22;10420;48.542;12.270;2022-07-25T04:49:12;19.50;99.90
20524;DHT22;10420;48.542;12.270;2022-07-25T04:54:12;19.80;99.90
20524;DHT22;10420;48.542;12.270;2022-07-25T04:59:13;20.00;99.90
20524;DHT22;10420;48.542;12.270;2022-07-25T05:04:13;20.20;99.90
20524;DHT22;10420;48.542;12.270;2022-07-25T05:09:14;20.60;99.90
20524;DHT22;10420;48.542;12.270;2022-07-25T05:14:15;20.80;99.90
20524;DHT22;10420;48.542;12.270;2022-07-25T05:19:15;20.70;99.90
20524;DHT22;10420;48.542;12.270;2022-07-25T05:24:16;20.90;99.90
20524;DHT22;10420;48.542;12.270;2022-07-25T05:29:17;21.10;99.90
20524;DHT22;10420;48.542;12.270;2022-07-25T05:34:18;21.30;99.90
20524;DHT22;10420;48.542;12.270;2022-07-25T05:39:18;21.60;99.90
20524;DHT22;10420;48.542;12.270;2022-07-25T05:44:19;21.80;99.90
20524;DHT22;10420;48.542;12.270;2022-07-25T05:49:19;21.90;99.90
20524;DHT22;10420;48.542;12.270;2022-07-25T05:54:20;21.90;99.90
20524;DHT22;10420;48.542;12.270;2022-07-25T05:59:21;22.10;99.90
20524;DHT22;10420;48.542;12.270;2022-07-25T06:04:21;22.30;99.90
20524;DHT22;10420;48.542;12.270;2022-07-25T06:09:23;22.30;99.90
20524;DHT22;10420;48.542;12.270;2022-07-25T06:14:23;22.90;99.90
20524;DHT22;10420;48.542;12.270;2022-07-25T06:19:24;22.90;99.90
20524;DHT22;10420;48.542;12.270;2022-07-25T06:24:25;23.30;99.90
20524;DHT22;10420;48.542;12.270;2022-07-25T06:29:26;23.50;99.90
20524;DHT22;10420;48.542;12.270;2022-07-25T06:34:29;23.60;99.90
20524;DHT22;10420;48.542;12.270;2022-07-25T06:39:30;23.80;99.90
20524;DHT22;10420;48.542;12.270;2022-07-25T06:44:32;23.90;99.90
20524;DHT22;10420;48.542;12.270;2022-07-25T06:49:33;24.10;99.90
20524;DHT22;10420;48.542;12.270;2022-07-25T06:54:34;24.50;99.90
20524;DHT22;10420;48.542;12.270;2022-07-25T06:59:34;25.10;99.90
20524;DHT22;10420;48.542;12.270;2022-07-25T07:04:35;25.30;99.90
20524;DHT22;10420;48.542;12.270;2022-07-25T07:09:36;25.20;99.90
20524;DHT22;10420;48.542;12.270;2022-07-25T07:14:36;25.30;99.90
20524;DHT22;10420;48.542;12.270;2022-07-25T07:19:37;25.60;99.90
20524;DHT22;10420;48.542;12.270;2022-07-25T07:24:43;25.90;99.90
20524;DHT22;10420;48.542;12.270;2022-07-25T07:29:45;25.50;99.90
20524;DHT22;10420;48.542;12.270;2022-07-25T07:34:45;26.30;99.90
20524;DHT22;10420;48.542;12.270;2022-07-25T07:39:46;26.30;99.90
20524;DHT22;10420;48.542;12.270;2022-07-25T07:44:47;26.60;99.90
20524;DHT22;10420;48.542;12.270;2022-07-25T07:49:47;26.90;99.90
20524;DHT22;10420;48.542;12.270;2022-07-25T07:54:48;27.40;99.90
20524;DHT22;10420;48.542;12.270;2022-07-25T08:00:08;27.50;99.90
20524;DHT22;10420;48.542;12.270;2022-07-25T08:05:08;27.90;99.90
20524;DHT22;10420;48.542;12.270;2022-07-25T08:10:09;28.10;99.90
20524;DHT22;10420;48.542;12.270;2022-07-25T08:15:10;28.50;99.90
20524;DHT22;10420;48.542;12.270;2022-07-25T08:20:11;29.10;99.90
20524;DHT22;10420;48.542;12.270;2022-07-25T08:25:14;28.90;99.90
20524;DHT22;10420;48.542;12.270;2022-07-25T08:30:16;28.60;99.90
20524;DHT22;10420;48.542;12.270;2022-07-25T08:35:21;29.40;99.90
20524;DHT22;10420;48.542;12.270;2022-07-25T08:40:25;29.40;99.90
20524;DHT22;10420;48.542;12.270;2022-07-25T08:45:27;29.10;99.90
20524;DHT22;10420;48.542;12.270;2022-07-25T08:50:28;29.80;99.90
20524;DHT22;10420;48.542;12.270;2022-07-25T08:55:31;30.30;99.90
20524;DHT22;10420;48.542;12.270;2022-07-25T09:00:32;30.30;99.90
20524;DHT22;10420;48.542;12.270;2022-07-25T09:05:34;30.10;99.90
20524;DHT22;10420;48.542;12.270;2022-07-25T09:10:36;29.90;99.90
20524;DHT22;10420;48.542;12.270;2022-07-25T09:15:39;30.70;99.90
20524;DHT22;10420;48.542;12.270;2022-07-25T09:20:52;30.80;99.90
20524;DHT22;10420;48.542;12.270;2022-07-25T09:26:10;31.30;99.90
20524;DHT22;10420;48.542;12.270;2022-07-25T09:31:12;31.20;99.90
20524;DHT22;10420;48.542;12.270;2022-07-25T09:36:14;31.40;99.90
20524;DHT22;10420;48.542;12.270;2022-07-25T09:41:14;31.00;99.90
20524;DHT22;10420;48.542;12.270;2022-07-25T09:46:15;31.70;99.90
20524;DHT22;10420;48.542;12.270;2022-07-25T09:51:16;32.00;99.90
20524;DHT22;10420;48.542;12.270;2022-07-25T09:56:17;32.50;99.90
20524;DHT22;10420;48.542;12.270;2022-07-25T10:01:23;32.20;99.90
20524;DHT22;10420;48.542;12.270;2022-07-25T10:06:49;33.40;99.90
20524;DHT22;10420;48.542;12.270;2022-07-25T10:12:04;32.20;99.90
20524;DHT22;10420;48.542;12.270;2022-07-25T10:17:06;32.60;99.90
20524;DHT22;10420;48.542;12.270;2022-07-25T10:22:07;32.60;99.90
20524;DHT22;10420;48.542;12.270;2022-07-25T10:27:11;33.70;99.90
20524;DHT22;10420;48.542;12.270;2022-07-25T10:32:12;32.90;99.90
20524;DHT22;10420;48.542;12.270;2022-07-25T10:37:15;33.70;99.90
20524;DHT22;10420;48.542;12.270;2022-07-25T10:42:20;33.00;99.90
20524;DHT22;10420;48.542;12.270;2022-07-25T10:47:22;34.00;99.00
20524;DHT22;10420;48.542;12.270;2022-07-25T10:52:27;33.50;97.80
20524;DHT22;10420;48.542;12.270;2022-07-25T10:57:28;34.20;98.70
20524;DHT22;10420;48.542;12.270;2022-07-25T11:02:30;34.00;96.90
20524;DHT22;10420;48.542;12.270;2022-07-25T11:07:30;34.20;97.40
20524;DHT22;10420;48.542;12.270;2022-07-25T11:12:35;34.20;95.80
20524;DHT22;10420;48.542;12.270;2022-07-25T11:17:36;34.10;97.50
20524;DHT22;10420;48.542;12.270;2022-07-25T11:22:37;34.60;96.10
20524;DHT22;10420;48.542;12.270;2022-07-25T11:27:37;34.60;94.50
20524;DHT22;10420;48.542;12.270;2022-07-25T11:32:40;34.80;94.20
20524;DHT22;10420;48.542;12.270;2022-07-25T11:37:43;34.70;95.10
20524;DHT22;10420;48.542;12.270;2022-07-25T11:42:52;34.50;93.40
20524;DHT22;10420;48.542;12.270;2022-07-25T11:48:05;34.50;94.30
20524;DHT22;10420;48.542;12.270;2022-07-25T11:53:09;34.40;93.60
20524;DHT22;10420;48.542;12.270;2022-07-25T11:58:11;34.20;92.60
20524;DHT22;10420;48.542;12.270;2022-07-25T12:03:15;34.40;94.30
20524;DHT22;10420;48.542;12.270;2022-07-25T12:08:20;34.20;94.20
20524;DHT22;10420;48.542;12.270;2022-07-25T12:13:27;33.80;94.70
20524;DHT22;10420;48.542;12.270;2022-07-25T12:18:28;33.70;94.30
20524;DHT22;10420;48.542;12.270;2022-07-25T12:23:29;33.90;94.20
20524;DHT22;10420;48.542;12.270;2022-07-25T12:28:30;33.80;93.20
20524;DHT22;10420;48.542;12.270;2022-07-25T12:33:31;33.70;91.70
20524;DHT22;10420;48.542;12.270;2022-07-25T12:38:32;33.70;92.40
20524;DHT22;10420;48.542;12.270;2022-07-25T12:43:33;33.70;93.90
20524;DHT22;10420;48.542;12.270;2022-07-25T12:48:33;33.70;93.10
20524;DHT22;10420;48.542;12.270;2022-07-25T12:53:34;33.70;92.70
20524;DHT22;10420;48.542;12.270;2022-07-25T12:58:35;33.90;92.40
20524;DHT22;10420;48.542;12.270;2022-07-25T13:03:36;33.70;92.30
20524;DHT22;10420;48.542;12.270;2022-07-25T13:08:37;33.50;92.30
20524;DHT22;10420;48.542;12.270;2022-07-25T13:13:38;33.40;92.30
20524;DHT22;10420;48.542;12.270;2022-07-25T13:18:38;33.40;92.30
20524;DHT22;10420;48.542;12.270;2022-07-25T13:23:39;33.30;92.10
20524;DHT22;10420;48.542;12.270;2022-07-25T13:28:40;33.30;91.20
20524;DHT22;10420;48.542;12.270;2022-07-25T13:33:41;33.30;91.40
20524;DHT22;10420;48.542;12.270;2022-07-25T13:38:42;33.50;90.90
20524;DHT22;10420;48.542;12.270;2022-07-25T13:43:44;33.50;90.30
20524;DHT22;10420;48.542;12.270;2022-07-25T13:48:44;33.50;90.00
20524;DHT22;10420;48.542;12.270;2022-07-25T13:53:45;33.70;88.90
20524;DHT22;10420;48.542;12.270;2022-07-25T13:58:46;33.60;88.70
20524;DHT22;10420;48.542;12.270;2022-07-25T14:03:46;33.70;90.10
20524;DHT22;10420;48.542;12.270;2022-07-25T14:08:48;33.00;88.70
20524;DHT22;10420;48.542;12.270;2022-07-25T14:13:48;33.10;89.20
20524;DHT22;10420;48.542;12.270;2022-07-25T14:18:50;32.80;90.50
20524;DHT22;10420;48.542;12.270;2022-07-25T14:23:51;32.90;90.00
20524;DHT22;10420;48.542;12.270;2022-07-25T14:28:54;33.00;91.40
20524;DHT22;10420;48.542;12.270;2022-07-25T14:33:54;33.10;88.80
20524;DHT22;10420;48.542;12.270;2022-07-25T14:38:55;33.20;89.40
20524;DHT22;10420;48.542;12.270;2022-07-25T14:43:56;33.30;88.50
20524;DHT22;10420;48.542;12.270;2022-07-25T14:48:57;33.00;88.60
20524;DHT22;10420;48.542;12.270;2022-07-25T14:53:57;32.90;86.90
20524;DHT22;10420;48.542;12.270;2022-07-25T14:58:58;32.90;87.40
20524;DHT22;10420;48.542;12.270;2022-07-25T15:03:59;33.10;87.00
20524;DHT22;10420;48.542;12.270;2022-07-25T15:09:00;33.30;81.80
20524;DHT22;10420;48.542;12.270;2022-07-25T15:14:02;33.30;81.20
20524;DHT22;10420;48.542;12.270;2022-07-25T15:19:03;33.00;80.80
20524;DHT22;10420;48.542;12.270;2022-07-25T15:24:06;33.10;81.60
20524;DHT22;10420;48.542;12.270;2022-07-25T15:29:08;33.20;79.70
20524;DHT22;10420;48.542;12.270;2022-07-25T15:34:11;33.30;79.10
20524;DHT22;10420;48.542;12.270;2022-07-25T15:39:12;33.30;80.10
20524;DHT22;10420;48.542;12.270;2022-07-25T15:44:12;33.20;81.80
20524;DHT22;10420;48.542;12.270;2022-07-25T15:49:14;32.80;84.10
20524;DHT22;10420;48.542;12.270;2022-07-25T15:54:15;32.90;80.30
20524;DHT22;10420;48.542;12.270;2022-07-25T15:59:15;32.70;79.10
20524;DHT22;10420;48.542;12.270;2022-07-25T16:04:16;32.60;81.60
20524;DHT22;10420;48.542;12.270;2022-07-25T16:09:17;32.60;81.20
20524;DHT22;10420;48.542;12.270;2022-07-25T16:14:18;32.60;81.40
20524;DHT22;10420;48.542;12.270;2022-07-25T16:19:19;32.30;82.80
20524;DHT22;10420;48.542;12.270;2022-07-25T16:24:20;32.20;84.40
20524;DHT22;10420;48.542;12.270;2022-07-25T16:29:20;32.20;83.40
20524;DHT22;10420;48.542;12.270;2022-07-25T16:34:22;32.10;83.00
20524;DHT22;10420;48.542;12.270;2022-07-25T16:39:23;32.00;84.40
20524;DHT22;10420;48.542;12.270;2022-07-25T16:44:24;31.70;85.60
20524;DHT22;10420;48.542;12.270;2022-07-25T16:49:24;31.50;88.70
20524;DHT22;10420;48.542;12.270;2022-07-25T16:54:25;31.30;88.40
20524;DHT22;10420;48.542;12.270;2022-07-25T16:59:26;31.30;86.70
20524;DHT22;10420;48.542;12.270;2022-07-25T17:04:27;31.20;86.10
20524;DHT22;10420;48.542;12.270;2022-07-25T17:09:30;31.00;88.40
20524;DHT22;10420;48.542;12.270;2022-07-25T17:14:31;30.90;88.50
20524;DHT22;10420;48.542;12.270;2022-07-25T17:19:32;30.50;92.20
20524;DHT22;10420;48.542;12.270;2022-07-25T17:24:36;30.30;90.50
20524;DHT22;10420;48.542;12.270;2022-07-25T17:29:37;30.20;91.30
20524;DHT22;10420;48.542;12.270;2022-07-25T17:34:37;29.90;93.10
20524;DHT22;10420;48.542;12.270;2022-07-25T17:39:38;29.60;94.50
20524;DHT22;10420;48.542;12.270;2022-07-25T17:44:40;29.40;95.80
20524;DHT22;10420;48.542;12.270;2022-07-25T17:49:41;29.20;96.10
20524;DHT22;10420;48.542;12.270;2022-07-25T17:54:42;29.40;93.30
20524;DHT22;10420;48.542;12.270;2022-07-25T17:59:43;28.80;96.10
20524;DHT22;10420;48.542;12.270;2022-07-25T18:04:44;28.20;98.00
20524;DHT22;10420;48.542;12.270;2022-07-25T18:09:44;27.80;99.10
20524;DHT22;10420;48.542;12.270;2022-07-25T18:14:45;27.50;99.80
20524;DHT22;10420;48.542;12.270;2022-07-25T18:19:46;27.20;99.90
20524;DHT22;10420;48.542;12.270;2022-07-25T18:24:46;27.00;99.90
20524;DHT22;10420;48.542;12.270;2022-07-25T18:29:47;26.80;99.90
20524;DHT22;10420;48.542;12.270;2022-07-25T18:34:48;26.60;99.90
20524;DHT22;10420;48.542;12.270;2022-07-25T18:39:49;26.50;99.90
20524;DHT22;10420;48.542;12.270;2022-07-25T18:44:49;26.50;99.90
20524;DHT22;10420;48.542;12.270;2022-07-25T18:49:51;26.30;99.90
20524;DHT22;10420;48.542;12.270;2022-07-25T18:54:53;26.10;99.90
20524;DHT22;10420;48.542;12.270;2022-07-25T18:59:53;26.10;99.90
20524;DHT22;10420;48.542;12.270;2022-07-25T19:04:54;26.00;99.90
20524;DHT22;10420;48.542;12.270;2022-07-25T19:09:55;25.80;99.90
20524;DHT22;10420;48.542;12.270;2022-07-25T19:14:56;25.70;99.90
20524;DHT22;10420;48.542;12.270;2022-07-25T19:19:58;25.50;99.90
20524;DHT22;10420;48.542;12.270;2022-07-25T19:24:59;25.10;99.90
20524;DHT22;10420;48.542;12.270;2022-07-25T19:30:06;24.90;99.90
20524;DHT22;10420;48.542;12.270;2022-07-25T19:35:07;24.70;99.90
20524;DHT22;10420;48.542;12.270;2022-07-25T19:40:08;24.40;99.90
20524;DHT22;10420;48.542;12.270;2022-07-25T19:45:09;24.40;99.90
20524;DHT22;10420;48.542;12.270;2022-07-25T19:50:10;24.40;99.90
20524;DHT22;10420;48.542;12.270;2022-07-25T19:55:11;24.30;99.90
20524;DHT22;10420;48.542;12.270;2022-07-25T20:00:12;24.30;99.90
20524;DHT22;10420;48.542;12.270;2022-07-25T20:05:13;24.60;99.90
20524;DHT22;10420;48.542;12.270;2022-07-25T20:10:13;24.50;99.90
20524;DHT22;10420;48.542;12.270;2022-07-25T20:15:14;24.20;99.90
20524;DHT22;10420;48.542;12.270;2022-07-25T20:20:15;24.00;99.90
20524;DHT22;10420;48.542;12.270;2022-07-25T20:25:16;24.10;99.90
20524;DHT22;10420;48.542;12.270;2022-07-25T20:30:18;24.00;99.90
20524;DHT22;10420;48.542;12.270;2022-07-25T20:35:19;23.90;99.90
20524;DHT22;10420;48.542;12.270;2022-07-25T20:40:20;23.80;99.90
20524;DHT22;10420;48.542;12.270;2022-07-25T20:45:21;23.60;99.90
20524;DHT22;10420;48.542;12.270;2022-07-25T20:50:22;23.60;99.90
20524;DHT22;10420;48.542;12.270;2022-07-25T20:55:23;23.60;99.90
20524;DHT22;10420;48.542;12.270;2022-07-25T21:00:24;23.50;99.90
20524;DHT22;10420;48.542;12.270;2022-07-25T21:05:27;23.50;99.90
20524;DHT22;10420;48.542;12.270;2022-07-25T21:10:28;23.40;99.90
20524;DHT22;10420;48.542;12.270;2022-07-25T21:15:29;23.40;99.90
20524;DHT22;10420;48.542;12.270;2022-07-25T21:20:32;23.30;99.90
20524;DHT22;10420;48.542;12.270;2022-07-25T21:25:33;23.30;99.90
20524;DHT22;10420;48.542;12.270;2022-07-25T21:30:33;23.30;99.90
20524;DHT22;10420;48.542;12.270;2022-07-25T21:35:35;23.40;99.90
20524;DHT22;10420;48.542;12.270;2022-07-25T21:40:35;23.30;99.90
20524;DHT22;10420;48.542;12.270;2022-07-25T21:45:36;23.50;99.90
20524;DHT22;10420;48.542;12.270;2022-07-25T21:50:37;23.50;99.90
20524;DHT22;10420;48.542;12.270;2022-07-25T21:55:37;23.50;99.90
20524;DHT22;10420;48.542;12.270;2022-07-25T22:00:38;23.70;99.90
20524;DHT22;10420;48.542;12.270;2022-07-25T22:05:39;24.00;99.90
20524;DHT22;10420;48.542;12.270;2022-07-25T22:10:40;23.70;99.90
20524;DHT22;10420;48.542;12.270;2022-07-25T22:15:41;22.90;99.90
20524;DHT22;10420;48.542;12.270;2022-07-25T22:20:42;21.70;99.90
20524;DHT22;10420;48.542;12.270;2022-07-25T22:25:42;21.80;99.90
20524;DHT22;10420;48.542;12.270;2022-07-25T22:30:43;21.60;99.90
20524;DHT22;10420;48.542;12.270;2022-07-25T22:35:43;21.40;99.90
20524;DHT22;10420;48.542;12.270;2022-07-25T22:40:44;21.40;99.90
20524;DHT22;10420;48.542;12.270;2022-07-25T22:45:45;21.00;99.90
20524;DHT22;10420;48.542;12.270;2022-07-25T22:50:46;20.90;99.90
20524;DHT22;10420;48.542;12.270;2022-07-25T22:55:46;20.90;99.90
20524;DHT22;10420;48.542;12.270;2022-07-25T23:00:47;20.60;99.90
20524;DHT22;10420;48.542;12.270;2022-07-25T23:05:48;20.50;99.90
20524;DHT22;10420;48.542;12.270;2022-07-25T23:10:48;20.30;99.90
20524;DHT22;10420;48.542;12.270;2022-07-25T23:15:49;20.20;99.90
20524;DHT22;10420;48.542;12.270;2022-07-25T23:20:50;20.10;99.90
20524;DHT22;10420;48.542;12.270;2022-07-25T23:25:50;20.20;99.90
20524;DHT22;10420;48.542;12.270;2022-07-25T23:30:51;20.20;99.90
20524;DHT22;10420;48.542;12.270;2022-07-25T23:35:53;19.60;99.90
20524;DHT22;10420;48.542;12.270;2022-07-25T23:40:53;19.30;99.90
20524;DHT22;10420;48.542;12.270;2022-07-25T23:45:54;18.90;99.90
20524;DHT22;10420;48.542;12.270;2022-07-25T23:50:55;19.20;99.90
20524;DHT22;10420;48.542;12.270;2022-07-25T23:55:56;19.20;99.90
